Аэропорт: Брянск. Брянск

ICAO: UUBP

METAR:
2020-06-02 09:00:00
UUBP 020900Z 17006MPS 9999 BKN020CB 15/11 Q1006 R16/290050 NOSIG RMK QFE736/0982
METAR:
2020-06-02 07:58:00
TAF UUBP 020758Z 0209/0218 14007MPS 9999 BKN011 TEMPO 0209/0215 16007G14MPS 3100 -TSRA BR BKN011CB